createdAt,value
2022-10-14T00:01:13.187Z,9.13
2022-10-14T00:03:40.637Z,8.30
2022-10-14T00:06:10.485Z,10.90
2022-10-14T00:08:37.869Z,8.07
2022-10-14T00:11:10.757Z,9.68
2022-10-14T00:13:38.363Z,8.73
2022-10-14T00:16:06.364Z,8.10
2022-10-14T00:18:33.672Z,8.25
2022-10-14T00:21:02.050Z,8.77
2022-10-14T00:23:30.765Z,7.63
2022-10-14T00:25:58.003Z,6.97
2022-10-14T00:28:30.488Z,8.85
2022-10-14T00:30:59.819Z,10.70
2022-10-14T00:33:28.040Z,7.80
2022-10-14T00:35:58.982Z,7.53
2022-10-14T00:38:31.887Z,8.40
2022-10-14T00:40:59.204Z,7.00
2022-10-14T00:43:27.886Z,8.90
2022-10-14T00:45:55.159Z,8.02
2022-10-14T00:48:24.984Z,10.90
2022-10-14T00:50:56.609Z,10.07
2022-10-14T00:53:23.888Z,6.40
2022-10-14T00:55:53.172Z,7.22
2022-10-14T00:58:23.862Z,7.13
2022-10-14T01:00:51.306Z,7.53
2022-10-14T01:03:21.270Z,6.78
2022-10-14T01:05:55.497Z,6.72
2022-10-14T01:08:31.640Z,6.40
2022-10-14T01:11:14.997Z,6.32
2022-10-14T01:13:50.895Z,7.00
2022-10-14T01:16:21.792Z,8.05
2022-10-14T01:19:33.393Z,7.80
2022-10-14T01:22:32.573Z,5.30
2022-10-14T01:25:20.471Z,7.40
2022-10-14T01:28:16.645Z,5.85
2022-10-14T01:30:47.070Z,5.75
2022-10-14T01:33:24.793Z,7.35
2022-10-14T01:36:12.309Z,8.88
2022-10-14T01:38:45.412Z,5.60
2022-10-14T01:41:29.109Z,6.50
2022-10-14T01:44:00.548Z,6.60
2022-10-14T01:46:29.680Z,7.43
2022-10-14T01:49:01.878Z,5.63
2022-10-14T01:51:33.322Z,7.05
2022-10-14T01:54:04.717Z,5.93
2022-10-14T01:56:35.011Z,6.63
2022-10-14T01:59:06.936Z,6.28
2022-10-14T02:01:35.004Z,6.65
2022-10-14T02:04:02.483Z,6.75
2022-10-14T02:06:32.601Z,6.72
2022-10-14T02:09:12.830Z,5.03
2022-10-14T02:11:57.332Z,5.90
2022-10-14T02:14:27.593Z,5.72
2022-10-14T02:16:55.928Z,7.30
2022-10-14T02:19:28.794Z,7.05
2022-10-14T02:22:02.072Z,6.30
2022-10-14T02:24:38.377Z,6.47
2022-10-14T02:27:09.597Z,6.35
2022-10-14T02:29:39.081Z,5.78
2022-10-14T02:32:07.331Z,6.07
2022-10-14T02:34:35.448Z,6.68
2022-10-14T02:37:03.498Z,6.72
2022-10-14T02:39:36.756Z,6.07
2022-10-14T02:42:05.834Z,5.43
2022-10-14T02:44:34.727Z,6.53
2022-10-14T02:47:02.131Z,7.25
2022-10-14T02:49:30.551Z,6.45
2022-10-14T02:51:57.812Z,6.30
2022-10-14T02:54:25.067Z,7.25
2022-10-14T02:56:52.320Z,9.82
2022-10-14T02:59:19.533Z,7.22
2022-10-14T03:01:47.101Z,7.05
2022-10-14T03:04:16.305Z,7.40
2022-10-14T03:06:43.575Z,6.72
2022-10-14T03:09:10.797Z,7.15
2022-10-14T03:11:40.974Z,7.35
2022-10-14T03:14:13.436Z,6.30
2022-10-14T03:16:42.342Z,7.28
2022-10-14T03:21:44.423Z,5.90
2022-10-14T03:24:18.343Z,8.50
2022-10-14T03:26:47.691Z,7.13
2022-10-14T03:29:20.068Z,6.25
2022-10-14T03:31:55.362Z,6.15
2022-10-14T03:34:41.125Z,5.95
2022-10-14T03:37:15.090Z,5.95
2022-10-14T03:39:49.051Z,5.75
2022-10-14T03:42:17.483Z,5.60
2022-10-14T03:44:47.868Z,5.57
2022-10-14T03:47:19.072Z,4.60
2022-10-14T03:49:46.576Z,4.05
2022-10-14T03:52:34.040Z,5.05
2022-10-14T03:55:18.029Z,6.25
2022-10-14T03:57:47.566Z,5.22
2022-10-14T04:00:16.656Z,4.78
2022-10-14T04:02:50.001Z,3.45
2022-10-14T04:05:33.671Z,4.50
2022-10-14T04:08:04.158Z,4.28
2022-10-14T04:10:31.796Z,3.03
2022-10-14T04:13:01.818Z,3.45
2022-10-14T04:15:36.553Z,3.20
2022-10-14T04:18:24.005Z,4.93
2022-10-14T04:20:53.768Z,3.38
2022-10-14T04:23:23.322Z,3.25
2022-10-14T04:25:54.948Z,4.43
2022-10-14T04:28:23.643Z,4.32
2022-10-14T04:31:00.545Z,3.25
2022-10-14T04:33:35.061Z,2.38
2022-10-14T04:36:10.531Z,3.05
2022-10-14T04:38:40.771Z,4.57
2022-10-14T04:41:10.377Z,3.33
2022-10-14T04:43:41.821Z,2.60
2022-10-14T04:46:20.691Z,2.40
2022-10-14T04:48:49.172Z,3.58
2022-10-14T04:51:17.789Z,2.92
2022-10-14T04:54:02.986Z,2.83
2022-10-14T04:56:56.949Z,2.55
2022-10-14T04:59:24.223Z,2.00
2022-10-14T05:02:01.106Z,3.53
2022-10-14T05:04:37.701Z,4.20
2022-10-14T05:07:04.996Z,4.28
2022-10-14T05:09:33.396Z,2.67
2022-10-14T05:12:01.220Z,2.38
2022-10-14T05:14:38.619Z,2.38
2022-10-14T05:17:22.687Z,4.45
2022-10-14T05:19:49.935Z,2.75
2022-10-14T05:22:19.379Z,2.85
2022-10-14T05:24:46.953Z,2.60
2022-10-14T05:27:14.874Z,5.28
2022-10-14T05:29:43.215Z,3.90
2022-10-14T05:32:10.711Z,3.60
2022-10-14T05:34:45.066Z,2.80
2022-10-14T05:37:25.103Z,3.60
2022-10-14T05:39:56.213Z,2.58
2022-10-14T05:42:26.536Z,3.60
2022-10-14T05:44:56.800Z,3.53
2022-10-14T05:47:25.118Z,4.00
2022-10-14T05:49:57.695Z,5.45
2022-10-14T05:52:25.288Z,4.07
2022-10-14T05:54:53.835Z,5.03
2022-10-14T05:57:24.885Z,4.15
2022-10-14T05:59:52.079Z,6.30
2022-10-14T06:02:19.664Z,5.90
2022-10-14T06:04:47.619Z,8.48
2022-10-14T06:07:15.096Z,5.00
2022-10-14T06:09:42.559Z,7.57
2022-10-14T06:12:10.264Z,4.63
2022-10-14T06:14:38.834Z,9.38
2022-10-14T06:17:06.583Z,6.85
2022-10-14T06:19:34.008Z,8.15
2022-10-14T06:22:01.238Z,8.60
2022-10-14T06:24:28.738Z,6.88
2022-10-14T06:26:56.030Z,7.85
2022-10-14T06:29:26.582Z,4.50
2022-10-14T06:31:53.804Z,6.38
2022-10-14T06:34:23.750Z,6.38
2022-10-14T06:36:50.990Z,6.60
2022-10-14T06:39:18.167Z,8.98
2022-10-14T06:41:45.435Z,5.00
2022-10-14T06:44:20.442Z,5.93
2022-10-14T06:46:47.736Z,7.05
2022-10-14T06:49:14.963Z,6.40
2022-10-14T06:51:42.278Z,5.30
2022-10-14T06:54:09.503Z,4.88
2022-10-14T06:56:36.738Z,7.03
2022-10-14T06:59:05.830Z,8.63
2022-10-14T07:01:33.117Z,5.50
2022-10-14T07:04:00.383Z,5.03
2022-10-14T07:06:27.650Z,8.23
2022-10-14T07:08:54.881Z,6.22
2022-10-14T07:11:22.279Z,6.28
2022-10-14T07:13:49.650Z,5.38
2022-10-14T07:16:16.863Z,4.28
2022-10-14T07:18:44.161Z,8.27
2022-10-14T07:21:11.730Z,6.43
2022-10-14T07:23:39.031Z,3.55
2022-10-14T07:26:06.317Z,5.75
2022-10-14T07:28:34.191Z,6.43
2022-10-14T07:31:04.037Z,6.35
2022-10-14T07:33:31.380Z,8.75
2022-10-14T07:36:03.317Z,7.32
2022-10-14T07:38:31.387Z,4.78
2022-10-14T07:41:07.771Z,6.13
2022-10-14T07:43:35.895Z,6.63
2022-10-14T07:46:05.219Z,7.15
2022-10-14T07:48:45.246Z,4.80
2022-10-14T07:51:21.559Z,6.50
2022-10-14T07:53:50.179Z,8.20
2022-10-14T07:56:17.464Z,8.73
2022-10-14T07:58:44.757Z,6.18
2022-10-14T08:01:12.837Z,4.72
2022-10-14T08:03:40.192Z,9.05
2022-10-14T08:06:07.583Z,6.93
2022-10-14T08:08:35.738Z,6.75
2022-10-14T08:11:24.717Z,5.38
2022-10-14T08:13:52.200Z,3.33
2022-10-14T08:16:21.621Z,3.97
2022-10-14T08:18:49.765Z,3.77
2022-10-14T08:21:18.169Z,10.23
2022-10-14T08:23:45.591Z,9.45
2022-10-14T08:26:18.614Z,7.18
2022-10-14T08:28:46.162Z,7.57
2022-10-14T08:31:13.631Z,5.15
2022-10-14T08:33:40.813Z,5.57
2022-10-14T08:36:08.661Z,6.13
2022-10-14T08:38:35.926Z,3.90
2022-10-14T08:41:12.295Z,6.85
2022-10-14T08:43:43.303Z,8.02
2022-10-14T08:46:19.249Z,4.78
2022-10-14T08:48:48.112Z,9.13
2022-10-14T08:51:17.576Z,6.75
2022-10-14T08:53:56.179Z,5.13
2022-10-14T08:56:24.601Z,3.97
2022-10-14T08:58:53.991Z,7.32
2022-10-14T09:01:36.265Z,9.23
2022-10-14T09:04:10.718Z,6.75
2022-10-14T09:06:40.282Z,7.10
2022-10-14T09:09:16.756Z,11.20
2022-10-14T09:11:46.289Z,13.73
2022-10-14T09:14:21.607Z,8.75
2022-10-14T09:16:54.181Z,6.65
2022-10-14T09:19:46.882Z,6.45
2022-10-14T09:22:15.406Z,5.35
2022-10-14T09:24:46.154Z,6.15
2022-10-14T09:27:17.645Z,8.98
2022-10-14T09:29:57.244Z,5.95
2022-10-14T09:32:30.626Z,5.03
2022-10-14T09:34:58.718Z,8.65
2022-10-14T09:37:26.091Z,14.68
2022-10-14T09:39:56.560Z,5.95
2022-10-14T09:45:14.265Z,7.88
2022-10-14T09:47:59.193Z,9.80
2022-10-14T09:50:39.800Z,8.25
2022-10-14T09:53:13.888Z,6.75
2022-10-14T09:55:48.235Z,12.07
2022-10-14T09:58:41.444Z,12.00
2022-10-14T10:01:14.504Z,10.27
2022-10-14T10:03:42.114Z,9.82
2022-10-14T10:06:11.965Z,22.95
2022-10-14T10:09:01.353Z,16.30
2022-10-14T10:11:40.080Z,13.45
2022-10-14T10:14:27.682Z,13.50
2022-10-14T10:17:07.262Z,10.98
2022-10-14T10:19:37.565Z,14.27
2022-10-14T10:25:01.078Z,9.20
2022-10-14T10:27:36.605Z,9.15
2022-10-14T10:30:22.076Z,12.18
2022-10-14T10:32:52.321Z,10.00
2022-10-14T10:38:03.332Z,19.50
2022-10-14T10:40:52.782Z,33.13
2022-10-14T10:43:19.983Z,29.95
2022-10-14T10:46:01.248Z,18.45
2022-10-14T10:48:48.015Z,17.08
2022-10-14T10:51:34.467Z,10.40
2022-10-14T10:54:39.883Z,9.43
2022-10-14T10:57:18.182Z,9.15
2022-10-14T10:59:56.334Z,7.97
2022-10-14T11:02:58.242Z,10.18
2022-10-14T11:05:47.443Z,9.73
2022-10-14T11:08:45.704Z,12.77
2022-10-14T11:12:04.758Z,8.52
2022-10-14T11:14:47.410Z,12.98
2022-10-14T11:17:14.623Z,22.25
2022-10-14T11:20:01.083Z,12.73
2022-10-14T11:22:48.015Z,8.98
2022-10-14T11:25:40.872Z,11.55
2022-10-14T11:28:12.662Z,8.68
2022-10-14T11:30:39.842Z,4.35
2022-10-14T11:33:45.574Z,5.32
2022-10-14T11:36:25.294Z,5.50
2022-10-14T11:39:16.464Z,6.03
2022-10-14T11:41:55.968Z,4.72
2022-10-14T11:44:32.393Z,6.07
2022-10-14T11:47:04.507Z,6.35
2022-10-14T11:49:36.675Z,4.97
2022-10-14T11:52:07.749Z,5.15
2022-10-14T11:54:43.662Z,3.85
2022-10-14T11:57:20.347Z,4.15
2022-10-14T12:00:01.173Z,4.57
2022-10-14T12:02:41.067Z,5.38
2022-10-14T12:05:44.514Z,3.65
2022-10-14T12:08:22.229Z,5.95
2022-10-14T12:10:58.297Z,5.75
2022-10-14T12:13:32.563Z,11.23
2022-10-14T12:16:05.456Z,7.25
2022-10-14T12:18:33.085Z,9.45
2022-10-14T12:21:08.649Z,6.60
2022-10-14T12:23:47.294Z,8.85
2022-10-14T12:26:20.495Z,9.85
2022-10-14T12:28:47.931Z,5.53
2022-10-14T12:31:38.298Z,5.07
2022-10-14T12:34:11.613Z,7.13
2022-10-14T12:36:39.817Z,10.27
2022-10-14T12:39:19.030Z,5.63
2022-10-14T12:42:10.473Z,5.13
2022-10-14T12:44:51.860Z,15.70
2022-10-14T12:47:21.258Z,13.60
2022-10-14T12:49:56.470Z,11.27
2022-10-14T12:52:27.225Z,8.27
2022-10-14T12:54:55.209Z,10.00
2022-10-14T12:57:28.685Z,7.72
2022-10-14T12:59:59.352Z,4.88
2022-10-14T13:02:33.088Z,5.72
2022-10-14T13:05:06.820Z,6.45
2022-10-14T13:07:42.896Z,7.50
2022-10-14T13:10:50.414Z,5.82
2022-10-14T13:13:44.837Z,6.45
2022-10-14T13:16:21.154Z,8.48
2022-10-14T13:18:53.222Z,5.18
2022-10-14T13:21:34.815Z,7.82
2022-10-14T13:24:06.037Z,6.32
2022-10-14T13:26:54.639Z,4.18
2022-10-14T13:29:40.637Z,5.70
2022-10-14T13:32:25.858Z,20.55
2022-10-14T13:35:01.244Z,6.43
2022-10-14T13:38:05.474Z,8.73
2022-10-14T13:40:43.751Z,4.15
2022-10-14T13:43:20.036Z,7.78
2022-10-14T13:45:53.381Z,6.40
2022-10-14T13:48:30.968Z,11.88
2022-10-14T13:51:24.687Z,6.47
2022-10-14T13:54:17.188Z,5.38
2022-10-14T13:56:44.939Z,9.35
2022-10-14T13:59:43.130Z,5.03
2022-10-14T14:02:16.150Z,10.07
2022-10-14T14:04:51.557Z,8.60
2022-10-14T14:07:59.230Z,12.63
2022-10-14T14:10:18.857Z,9.20
2022-10-14T14:12:46.718Z,5.60
2022-10-14T14:15:21.631Z,9.95
2022-10-14T14:17:48.967Z,4.05
2022-10-14T14:20:24.441Z,6.65
2022-10-14T14:22:54.097Z,8.45
2022-10-14T14:25:35.716Z,6.45
2022-10-14T14:28:15.409Z,3.78
2022-10-14T14:30:54.293Z,9.75
2022-10-14T14:33:33.964Z,8.93
2022-10-14T14:36:03.912Z,5.20
2022-10-14T14:38:33.420Z,14.75
2022-10-14T14:41:06.057Z,8.68
2022-10-14T14:43:37.406Z,4.75
2022-10-14T14:46:07.178Z,4.00
2022-10-14T14:48:34.497Z,5.88
2022-10-14T14:51:01.855Z,5.00
2022-10-14T14:53:32.189Z,4.38
2022-10-14T14:56:10.423Z,6.05
2022-10-14T14:58:49.234Z,5.00
2022-10-14T15:01:28.978Z,3.53
2022-10-14T15:04:12.652Z,5.15
2022-10-14T15:07:04.097Z,4.18
2022-10-14T15:10:00.856Z,5.53
2022-10-14T15:12:30.991Z,5.13
2022-10-14T15:14:59.823Z,3.90
2022-10-14T15:17:30.130Z,3.58
2022-10-14T15:20:01.291Z,3.63
2022-10-14T15:22:36.568Z,4.78
2022-10-14T15:25:10.365Z,4.38
2022-10-14T15:27:37.533Z,4.13
2022-10-14T15:30:31.781Z,8.30
2022-10-14T15:33:06.118Z,6.63
2022-10-14T15:35:34.197Z,6.95
2022-10-14T15:38:01.498Z,5.63
2022-10-14T15:40:32.364Z,6.28
2022-10-14T15:42:59.708Z,4.75
2022-10-14T15:45:27.110Z,7.72
2022-10-14T15:48:00.707Z,7.15
2022-10-14T15:50:28.170Z,6.47
2022-10-14T15:52:56.884Z,4.55
2022-10-14T15:55:27.138Z,14.30
2022-10-14T15:57:54.512Z,20.38
2022-10-14T16:00:23.636Z,8.25
2022-10-14T16:02:54.529Z,16.65
2022-10-14T16:05:21.903Z,7.38
2022-10-14T16:07:49.491Z,17.20
2022-10-14T16:10:21.563Z,10.50
2022-10-14T16:12:49.584Z,12.13
2022-10-14T16:15:22.599Z,12.40
2022-10-14T16:17:52.814Z,8.55
2022-10-14T16:20:21.478Z,8.80
2022-10-14T16:22:48.965Z,5.93
2022-10-14T16:25:23.971Z,5.32
2022-10-14T16:27:51.319Z,5.32
2022-10-14T16:30:18.793Z,8.02
2022-10-14T16:32:45.980Z,10.05
2022-10-14T16:35:13.239Z,7.68
2022-10-14T16:37:41.092Z,6.45
2022-10-14T16:40:10.919Z,11.45
2022-10-14T16:42:38.373Z,8.15
2022-10-14T16:45:06.278Z,5.72
2022-10-14T16:47:33.689Z,4.78
2022-10-14T16:50:00.981Z,7.90
2022-10-14T16:52:28.213Z,6.22
2022-10-14T16:54:55.505Z,7.50
2022-10-14T16:57:22.790Z,10.13
2022-10-14T16:59:50.059Z,8.18
2022-10-14T17:02:18.036Z,7.40
2022-10-14T17:04:46.541Z,8.43
2022-10-14T17:07:16.592Z,7.85
2022-10-14T17:09:43.857Z,6.72
2022-10-14T17:12:13.779Z,6.10
2022-10-14T17:14:41.655Z,5.75
2022-10-14T17:17:10.373Z,4.53
2022-10-14T17:19:38.429Z,6.17
2022-10-14T17:22:05.859Z,10.93
2022-10-14T17:24:33.084Z,9.73
2022-10-14T17:27:04.567Z,7.35
2022-10-14T17:29:32.107Z,8.23
2022-10-14T17:31:59.299Z,7.07
2022-10-14T17:34:26.540Z,16.80
2022-10-14T17:36:54.307Z,5.30
2022-10-14T17:39:27.587Z,10.30
2022-10-14T17:41:56.714Z,8.15
2022-10-14T17:44:24.565Z,6.07
2022-10-14T17:46:52.030Z,12.68
2022-10-14T17:49:19.890Z,12.65
2022-10-14T17:51:47.377Z,14.25
2022-10-14T17:54:14.684Z,9.85
2022-10-14T17:56:43.091Z,12.07
2022-10-14T17:59:11.957Z,9.15
2022-10-14T18:04:26.494Z,8.60
2022-10-14T18:06:54.230Z,11.63
2022-10-14T18:09:21.725Z,7.85
2022-10-14T18:14:39.039Z,7.03
2022-10-14T18:17:06.469Z,6.05
2022-10-14T18:19:36.360Z,6.00
2022-10-14T18:22:04.132Z,6.65
2022-10-14T18:24:32.336Z,9.23
2022-10-14T18:26:59.529Z,6.95
2022-10-14T18:29:26.822Z,7.50
2022-10-14T18:31:54.016Z,7.88
2022-10-14T18:34:22.454Z,15.70
2022-10-14T18:36:49.874Z,11.65
2022-10-14T18:39:17.065Z,12.43
2022-10-14T18:41:44.398Z,17.48
2022-10-14T18:44:12.083Z,22.85
2022-10-14T18:46:40.418Z,18.02
2022-10-14T18:49:10.278Z,19.40
2022-10-14T18:51:38.831Z,11.27
2022-10-14T18:54:20.550Z,14.65
2022-10-14T18:56:48.023Z,12.38
2022-10-14T18:59:23.368Z,9.90
2022-10-14T19:01:55.221Z,10.70
2022-10-14T19:04:26.678Z,7.82
2022-10-14T19:06:54.016Z,6.97
2022-10-14T19:09:24.493Z,7.10
2022-10-14T19:11:52.707Z,6.80
2022-10-14T19:14:22.337Z,12.52
2022-10-14T19:16:49.854Z,7.28
2022-10-14T19:19:19.550Z,7.57
2022-10-14T19:21:51.034Z,7.80
2022-10-14T19:24:18.435Z,6.68
2022-10-14T19:26:46.875Z,5.43
2022-10-14T19:29:15.716Z,5.25
2022-10-14T19:31:43.898Z,10.75
2022-10-14T19:34:14.520Z,10.50
2022-10-14T19:36:43.507Z,5.47
2022-10-14T19:39:13.418Z,5.43
2022-10-14T19:41:46.254Z,5.78
2022-10-14T19:44:15.484Z,6.50
2022-10-14T19:46:44.302Z,5.35
2022-10-14T19:49:13.410Z,5.65
2022-10-14T19:51:40.867Z,4.15
2022-10-14T19:54:09.942Z,4.40
2022-10-14T19:56:37.197Z,3.45
2022-10-14T19:59:04.431Z,6.90
2022-10-14T20:01:32.343Z,3.67
2022-10-14T20:04:00.803Z,4.00
2022-10-14T20:06:31.709Z,3.72
2022-10-14T20:08:58.999Z,3.45
2022-10-14T20:11:26.448Z,4.25
2022-10-14T20:13:53.898Z,4.90
2022-10-14T20:16:21.072Z,6.43
2022-10-14T20:18:48.335Z,9.10
2022-10-14T20:21:16.184Z,6.13
2022-10-14T20:23:43.682Z,6.45
2022-10-14T20:26:18.042Z,9.88
2022-10-14T20:28:46.108Z,5.78
2022-10-14T20:31:16.168Z,6.78
2022-10-14T20:33:43.665Z,6.32
2022-10-14T20:36:18.246Z,5.95
2022-10-14T20:38:49.499Z,6.18
2022-10-14T20:41:24.314Z,5.50
2022-10-14T20:43:52.886Z,6.70
2022-10-14T20:46:21.770Z,6.32
2022-10-14T20:48:53.460Z,6.68
2022-10-14T20:51:22.598Z,9.52
2022-10-14T20:53:50.148Z,7.85
2022-10-14T20:56:17.461Z,7.72
2022-10-14T20:58:44.974Z,6.07
2022-10-14T21:01:17.109Z,7.05
2022-10-14T21:03:46.232Z,6.22
2022-10-14T21:06:26.903Z,6.68
2022-10-14T21:08:54.669Z,6.68
2022-10-14T21:11:23.425Z,5.43
2022-10-14T21:13:52.903Z,4.85
2022-10-14T21:16:25.793Z,7.00
2022-10-14T21:18:58.053Z,7.03
2022-10-14T21:21:27.241Z,6.47
2022-10-14T21:23:55.555Z,4.82
2022-10-14T21:26:23.096Z,5.35
2022-10-14T21:28:50.451Z,8.80
2022-10-14T21:31:19.312Z,6.53
2022-10-14T21:33:47.770Z,6.32
2022-10-14T21:36:16.700Z,7.82
2022-10-14T21:38:44.393Z,8.82
2022-10-14T21:41:12.107Z,6.28
2022-10-14T21:43:39.696Z,4.80
2022-10-14T21:46:14.322Z,3.63
2022-10-14T21:48:42.488Z,8.27
2022-10-14T21:51:12.089Z,6.25
2022-10-14T21:53:40.479Z,4.88
2022-10-14T21:56:08.300Z,6.25
2022-10-14T21:58:36.129Z,9.30
2022-10-14T22:01:24.340Z,5.20
2022-10-14T22:03:59.539Z,8.55
2022-10-14T22:06:27.237Z,6.22
2022-10-14T22:08:56.364Z,5.68
2022-10-14T22:11:29.152Z,5.45
2022-10-14T22:13:58.275Z,6.75
2022-10-14T22:16:28.907Z,6.43
2022-10-14T22:18:58.396Z,5.80
2022-10-14T22:21:27.336Z,4.55
2022-10-14T22:23:54.621Z,8.02
2022-10-14T22:26:23.853Z,4.72
2022-10-14T22:28:58.957Z,6.10
2022-10-14T22:31:27.340Z,6.65
2022-10-14T22:33:54.580Z,6.45
2022-10-14T22:36:24.353Z,5.35
2022-10-14T22:38:53.120Z,5.50
2022-10-14T22:41:21.156Z,4.90
2022-10-14T22:43:50.415Z,7.70
2022-10-14T22:46:22.291Z,5.95
2022-10-14T22:48:50.302Z,5.95
2022-10-14T22:51:20.074Z,5.25
2022-10-14T22:53:47.412Z,7.28
2022-10-14T22:56:22.467Z,5.03
2022-10-14T22:58:54.071Z,5.28
2022-10-14T23:01:22.247Z,7.30
2022-10-14T23:03:50.533Z,5.93
2022-10-14T23:06:17.774Z,5.30
2022-10-14T23:08:45.061Z,7.03
2022-10-14T23:11:18.459Z,6.53
2022-10-14T23:13:46.110Z,7.72
2022-10-14T23:16:31.653Z,6.05
2022-10-14T23:18:59.375Z,5.82
2022-10-14T23:21:29.198Z,8.18
2022-10-14T23:23:58.072Z,7.07
2022-10-14T23:26:27.141Z,6.57
2022-10-14T23:28:57.388Z,7.60
2022-10-14T23:33:53.177Z,6.57
2022-10-14T23:36:21.968Z,7.53
2022-10-14T23:38:49.898Z,6.45
2022-10-14T23:41:17.155Z,7.03
2022-10-14T23:43:45.481Z,8.63
2022-10-14T23:46:12.960Z,7.60
2022-10-14T23:48:40.670Z,7.68
2022-10-14T23:51:08.634Z,6.93
2022-10-14T23:53:35.926Z,7.78
2022-10-14T23:56:04.367Z,8.52
2022-10-14T23:58:32.381Z,10.43
